今日のアクセス数今日のアクセス数

    岡山グライダークラブ活動状況掲示板あなたは無料カウンター人目の訪問者です

岡山グライダークラブ
岡山市浦安南町639-1 岡南飛行場
 使用機:シャイベ式 SF25C型 ファルケ   JA2330
      ヴァレンティン式17E型 タイフーン  JA2342
 練習日:毎日曜日  クラブルーム:電話 086-265-1810
この掲示板は岡山グライダークラブの活動状況をお知らせする掲示板です。
!!!この掲示板は投稿規制をしています。!!!
クラブ関連各種情報は 岡山グライダークラブクラブルーム      を       .
  ブリーフイング情報は  岡山グライダークラブブリーフィングルーム  をご覧下さい。 .
※写真はクリックすると拡大して見ることが出来ます。
岡南飛行場へのアクセス等は 岡南飛行場管理事務所 をご覧ください。
クラブの ホームページ ができました。

ページ 1 (1〜10)

6月17日
by OGC at 2018/6/17(日) 22:12:00 No.20180617220405 コメント】  削除 引用
640 x 480 x 71,356バイト
No.1

06月17日
本日の参加者
  会員     8名
  その他     1名


@本日の様子



METAR
RJBK 170000Z 08006KT 040V110 30KM FEW020CU BKN/// 22/14 Q1013/A2992
RKOB 170000Z 07007KT 040V100 9999 FEW015 BKN/// 21/16 Q1013
RJOT 170000Z 05008KT 010V090 9999 FEW010 BKN/// 20/17 Q1013
RJOA 170000Z 10008KT 070V140 9999 FEW025 BKN/// 20/13 Q1013
TAF
RJOB 162308Z 1700/1806 08008KT 9999 FEW030
          BECMG 1703/1705 14010KT
          BECMG 1710/1712 06006KT
RJOT 162306Z 1700/1806 08010KT 9999 FEW025 SCT035
          TEMPO 1718/1803 2000 -SHRA BR FEW001 SCT003 BKN005
RJOA 162311Z 1700/1806 12008KT 9999 FEW030
          BECMG 1710/1712 05010KT
          BECMG 1800/1803 16005KT

本日は快晴、風も程よい感じの訓練日和でした。
フライトは、いつも通り着陸訓練やNAV訓練を行いました。また、田植え時期でもあり、参加人数が少なかったので早めの解散になりました。


解散    16:00

1番機  11:30離陸 撤収機  15:15着陸 

SF25C JA2330 ファルケ     05Flt.1h50min  
17E   JA2342 タイフーン    03Flt.1h00min  
合計                    08Flt.2h50min

 IBMのデータ復旧    データ復旧, DELL

6月10日
by OGC at 2018/6/10(日) 23:18:46 No.20180610231517 コメント】  削除 引用
1024 x 768 x 57,386バイト
No.1

06月10日
本日の参加者
  会員     7名
  その他     0名


@本日の様子



METAR
RJOB 100000Z 08007KT 9999 FEW020 SCT080 BKN160 19/16 Q1006
RJOT 100000Z 07010KT 9999 FEW030 SCT150 BKN/// 21/16 Q1006
RJOA 100000Z 07008KT 9999 FEW020 BKN070 18/14 Q1007
TAF
RJOB 092309Z 1000/1106 06007KT 9999 FEW015 BKN030 BKN045
          TEMPO 1006/1012 3000 SHRA BR BCFG FEW000 SCT003 BKN005
          TEMPO 1012/1015 4000 -SHRA BR FEW001 SCT005 BKN008
RJOT 092310Z 1000/1106 07010KT 6000 -SHRA FEW003 SCT008 BKN015
          TEMPO 1002/1010 3000 -SHRA BR BCFG FEW000 SCT004 BKN008
          BECMG 1010/1012 2000 BR BCFG FEW000 SCT005 BKN008
          TEMPO 1012/1021 0700 FG FEW000 SCT001 BKN003
          BECMG 1021/1100 9999 NSW FEW008 SCT015 BKN025
          BECMG 1100/1103 28008KT
RJOA 092306Z 1000/1106 07008KT 9999 FEW010 SCT020 BKN030
         TEMPO 1006/1012 4000 -SHRA BR FEW003 BKN008 BKN015
         TEMPO 1021/1103 3000 -SHRA BR FEW003 BKN008 BKN015


本日は午後から雨の予報でしたが、そこは「晴れの国!岡山」解散する16時頃まで雨は降りませんでした。
フライトは、いつも通り着陸訓練や特定操縦技能審査を手早く行い、早めに解散しました。


解散    15:47

1番機  10:55離陸 撤収機  14:50着陸 

SF25C JA2330 ファルケ     06Flt.1h45min  
17E   JA2342 タイフーン    03Flt.0h50min  
合計                    09Flt.2h35min

6月3日
by OGC at 2018/6/3(日) 23:46:15 No.20180603234326 コメント】  削除 引用
1024 x 768 x 164,259バイト
No.1

06月03日
本日の参加者
  会員    14名
  その他     0名


@本日の様子



METAR
RJBK 030000Z 09003KT 030V130 25KM FEW030CU BKN/// 22/15 Q1016 A3001
RJOB 030000Z VRB02KT CAVOK 22/16 Q1016
RJOT 030000Z VRB03KT 9999 FEW030 BKN/// 23/16 Q1016
RJOA 030000Z VRB02KT CAVOK 21/13 Q1017
TAF
RJOB 022307Z 0300/0406 14006KT 9999 FEW030
RJOT 022306Z 0300/0406 05007KT 9999 FEW030
RJOA 022307Z 0300/0406 15006KT 9999 FEW030
          BECMG 0310/0312 32005KT
          BECMG 0318/0321 12007KT


本日は日陰で風にあたっていると気持ちいい一日でした。
フライトは、いつも通り着陸訓練の他、加古川へのNAV訓練等を行いました。


解散    17:20

1番機  10:55離陸 撤収機  16:25着陸 

SF25C JA2330 ファルケ     08Flt.2h55min  
17E   JA2342 タイフーン    03Flt.2h10min  
合計                    11Flt.5h05min

05月27日
by OGC at 2018/5/27(日) 21:39:34 No.20180527213512 コメント】  削除 引用
1024 x 768 x 76,624バイト
No.1

05月27日
本日の参加者
  会員    11名
  その他     1名


@本日の様子



METAR
RJBK 270000Z VRB01KT 10KM BKN/// 23/14 A2989
RJOB 270000Z 24003KT 180V310 CAVOK 22/15 Q1012
RJOT 270000Z 35003KT 290V080 CAVOK 22/15 Q1012
RJOA 270000Z 28003KT 210V340 CAVOK 21/11 Q1013
TAF
RJOB 262307Z 2700/2806 19006KT CAVOK
     BECMG 2710/2712 05004KT
RJOT 262308Z 2700/2806 30005KT 9999 FEW030
     BECMG 2702/2704 05005KT
RJOA 262306Z 2700/2806 19006KT 9999 FEW030
     BECMG 2721/2800 13004KT

本日は積雲が一つもない穏やかな着陸練習日和でした。
フライトは、着陸練習の他、先週に引き続き笠岡ふれあい空港までNAV訓練に出たり、久しぶりに岡山桃太郎空港に行ったりしていました。



解散    17:20

1番機  11:35離陸 撤収機  16:20着陸 

SF25C JA2330 ファルケ     05Flt.1h40min  
17E   JA2342 タイフーン    05Flt.1h45min  
合計                    10Flt.3h25min
05月20日
by OGC at 2018/5/20(日) 22:25:57 No.20180520221039 コメント】  削除 引用
1024 x 768 x 74,219バイト
No.1

05月20日
本日の参加者
  会員    12名
  その他     3名


@本日の様子



METAR
RJBK 200000Z 09005KT 050V130 30KM FEW030CU SCT040CU 16/05 A3008
RJOB 200000Z 04009KT 350V070 9999 FEW025 BKN030 14/08 Q1018
RJOT 200000Z 08009KT 040V130 9999 FEW030 15/07 Q1018
RJOA 200000Z 07013KT 9999 FEW020 SCT025 15/07 Q1018
TAF
RJOB 192305Z 2000/2106 05009KT 9999 FEW025
     BECMG 2103/2106 12012KT
RJOT 192308Z 2000/2106 07012KT 9999 FEW030
     BECMG 2010/2012 15009KT
     BECMG 2021/2100 07012KT
RJOA 192306Z 2000/2106 12009KT 9999 FEW025
     BECMG 2015/2018 06012KT

本日は気温が低く日射が強いことからサーマルを期待しましたが、昼過ぎには積雲が消えてしまいました。
フライトは、笠岡ふれあい空港までNAV訓練に出たり、いつも通りTGL訓練やサーマルに挑戦していました。
また、本日は見学者2名がフライトを体験されました。



解散    16:39

1番機  11:00離陸 撤収機  16:10着陸 

SF25C JA2330 ファルケ     07Flt.3h15min  
17E   JA2342 タイフーン    05Flt.2h05min  
合計                    12Flt.5h20min
5月13日
by OGC at 2018/5/13(日) 19:55:56 No.20180513195206 コメント】  削除 引用
1024 x 768 x 130,164バイト
No.1

05月13日
本日の参加者
  会員    06名
  その他   00名


@本日の様子



METAR
RJOB 130000Z VRB02KT 2000 -SHRA BR BCFG FEW000 SCT004 BKN020 16/15 Q1010
RJOT 130000Z 03003KT 350V100 9999 VCSH FEW008 SCT040 BKN060 18/15 Q1010
RJOA 130000Z VRB02KT 2500 -SHRA BCFG BR FEW000 SCT003 BKN013 15/14 Q1010
TAF
RJOB 122310Z 1300/1406 06005KT 7000 -SHRA FEW005 SCT010 BKN020
     TEMPO 1300/1305 3500 SHRA BR BCFG FEW000 SCT005 BKN008
     BECMG 1304/1306 25006KT
     TEMPO 1305/1307 1500 SHRA BR BCFG FEW000 SCT003 BKN005
     TEMPO 1307/1315 1500 -SHRA BR BCFG FEW000 SCT003 BKN005
RJOT 122310Z 1300/1406 06005KT 7000 -SHRA FEW005 SCT010 BKN020
     TEMPO 1300/1305 3500 SHRA BR BCFG FEW000 SCT005 BKN008
     BECMG 1304/1306 25006KT
     TEMPO 1305/1307 1500 SHRA BR BCFG FEW000 SCT003 BKN005
     TEMPO 1307/1315 1500 -SHRA BR BCFG FEW000 SCT003 BKN005
RJOA 122312Z 1300/1406 12004KT 3000 -SHRA BR FEW001 BKN008 BKN015
     TEMPO 1300/1306 1500 SHRA BR BCFG FEW000 BKN005 BKN008
     BECMG 1303/1305 21005KT
     TEMPO 1306/1315 0700 -SHRA FG FEW000 SCT001 BKN003
     BECMG 1315/1318 6000 NSW FEW003 SCT015

本日は、雨が降る前にファルケの試運転まで行い雨が降り出したので、ブリーフィング、昼食は恒例のうどん屋さん、機体のプチ整備、ログの整備等を行い、15時過ぎに解散しました。



解散    15:00

本日のフライトはありません。
05月06日
by OGC at 2018/5/6(日) 19:33:01 No.20180506192536 コメント】  削除 引用
1024 x 768 x 76,374バイト
No.1
1024 x 768 x 124,588バイト
No.2

05月06日
本日の参加者
  会員    11名
  その他     0名


@岡南の様子
A笠岡ふれあい空港の様子



METAR
RJBK 060000Z 07004KT 25KM FEW030CU SCT150AC BKN/// 18/10 Q1016 A3000
RJOB 060000Z 11003KT 010V180 CAVOK 19/08 Q1016
RJOT 060000Z 04004KT 340V080 9999 FEW030 SCT120 BKN170 18/08 Q1015
RJOA 060000Z 13004KT 090V170 CAVOK 16/05 Q1016
TAF
RJOB 052308Z 0600/0706 12004KT 9999 FEW025 SCT045
          BECMG 0601/0603 18005KT
          TEMPO 0609/0612 4000 -RA BR FEW001 SCT005 BKN008
          BECMG 0612/0615 05004KT 4000 -SHRA BR FEW001 SCT005 BKN008
          TEMPO 0615/0700 1500 SHRA BR BCFG FEW000 SCT002 BKN005
          TEMPO 0700/0703 3000 SHRA BR
RJOT 052314Z 0600/0706 06004KT 9999 FEW030 BKN060
          BECMG 0601/0603 24005KT
          BECMG 0607/0609 08004KT
          BECMG 0615/0618 27006KT 3000 -SHRA BR FEW002 SCT005 BKN008
          TEMPO 0618/0703 1500 SHRA BR BCFG FEW000 BKN005 BKN008
RJOA 052309Z 0600/0706 12004KT 9999 FEW030 SCT045
          BECMG 0601/0603 21007KT
          TEMPO 0607/0610 4000 -RA BR
          BECMG 0610/0612 2500 -SHRA BR BCFG FEW000 SCT005 BKN008
          TEMPO 0612/0618 1500 -SHRA BR BCFG FEW000 SCT003 BKN005
          TEMPO 0618/0700 0800 SHRA FG FEW000 SCT003 BKN005

本日は、夕方から雨の予報でしたが、昼過ぎから雨が降り出し、ファルケは訓練フライト後に予定されていた笠岡ふれあい空港でのフライトも2フライトで切り上げ、タイフーンも2フライトで切り上げました。



解散    16:39

1番機  10:35離陸 撤収機  13:45着陸 

SF25C JA2330 ファルケ     06Flt.1h45min  
17E   JA2342 タイフーン    02Flt.0h40min  
合計                    08Flt.2h25min
4月22日
by OGC at 2018/4/22(日) 19:59:25 No.20180422195700 コメント】  削除 引用
1024 x 768 x 69,322バイト
No.1

04月22日
本日の参加者
  会員    14名
  その他     0名


@本日の様子




METAR
RJOB 220000Z 13004KT 050V180 CAVOK 18/13 Q1021
RJOT 220000Z VRB03KT CAVOK 20/11 Q1021
RJOA 220000Z 28005KT 230V330 CAVOK 19/11 Q1021
TAF
RJOB 212312Z 2200/2306 18005KT CAVOK
          BECMG 2209/2211 04004KT
          TEMPO 2218/2300 4000 BR
RJOT 212307Z 2200/2306 06005KT 9999 FEW030

RJOA 212305Z 2200/2306 20005KT 9999 FEW035

本日は天候もよく会員もよく集まりました。
訓練生は風がほとんどないので恒例の横風着陸の練習、ライセンサーは笠岡ふれあい空港の下見に行ったり、ソアリングをしたり、いつも通り各々に楽しんでいました。


解散    17:30

1番機  11:30離陸 撤収機  16:55着陸 

SF25C JA2330 ファルケ     09Flt.3h10min  
17E   JA2342 タイフーン    05Flt.1h50min  
合計                    14Flt.5h00min
4月15日
by OGC at 2018/4/15(日) 21:33:01 No.20180415212457 コメント】  削除 引用
1024 x 768 x 75,884バイト
No.1

04月15日
本日の参加者
  会員     6名
  その他     0名


@本日の様子




METAR
RJOB 150100Z 31009KT 250V360 9999 FEW015 SCT025 13/07 Q1007
RJOT 150100Z 25010KT 9999 FEW004 SCT010 BKN025 12/11 Q1007
RJOA 150100Z 32010KT 290V350 9999 FEW015 BKN020 12/07 Q1008
TAF
RJOB 142305Z 1500/1606 30010KT 9999 FEW025 SCT040
          BECMG 1600/1603 20005KT
RJOT 142311Z 1500/1606 27014KT 9999 FEW020 BKN030
          BECMG 1515/1518 20005KT
          BECMG 1600/1603 01006KT
RJOA 142307Z 1500/1606 31010KT 9999 FEW025 BKN040
          BECMG 1600/1603 17005KT

本日は天候を心配して、参加者が近年になく少ない一日でした。しかしながら、そこは「晴れの国 岡山」、湿度が高く日射がそこそこあり、サーマルが期待できるベストコンディションでした。
訓練生はソアリングと横風着陸の練習、ライセンサーはソアリングを行いました。


解散    17:00

1番機  11:35離陸 撤収機  16:25着陸 

SF25C JA2330 ファルケ     06Flt.2h20min  
17E   JA2342 タイフーン    00Flt.0h00min  
合計                    06Flt.2h20min
4月8日
by OGC at 2018/4/9(月) 00:50:53 No.20180409004527 コメント】  削除 引用
1024 x 768 x 64,150バイト
No.1

04月08日
本日の参加者
  会員    12名
  その他     0名


@本日の様子




METAR
RJOB 080000Z 28010KT 240V310 9999 FEW025 SCT035 06/M02 Q1017
RJOT 080000Z 28018KT 9999 FEW030 09/M06 Q1018
RJOA 080000Z 31013KT 9999 -SHSN FEW015 BKN025 05/M02 Q1018
TAF
RJOB 072311Z 0800/0906 25012KT 9999 FEW030 BKN045
RJOT 072308Z 0800/0906 27015KT 9999 FEW030
        TEMPO 0800/0806 27016G26KT
        BECMG 0807/0809 20006KT
        BECMG 0821/0900 26015KT
        TEMPO 0900/0906 26017G29KT
RJOA 072307Z 0800/0906 26008KT 9999 FEW020 SCT045


本日は少しガストのある風で、着陸には気を使う天候でした。
訓練生は本日も着陸練習やソアリング、ライセンサーはブルーインパルスの展示飛行が早々に中断されたことから、代わりに瀬戸大橋上空へ行っていました。


解散    17:30

1番機  12:25離陸 撤収機  17:15着陸 

SF25C JA2330 ファルケ     06Flt.2h35min  
17E   JA2342 タイフーン    05Flt.2h35min  
合計                    11Flt.5h10min

 IBMのデータ復旧    データ復旧, DELL

ホームページへ 全 49 件 [ 1 2 3 4 5 ]

モータースポーツ | 管理者へメール | お知らせ | 一括削除
携帯から使う方法 | ヘルプ | 利用規約 | 違反報告 | 管理パネル



- 無料レンタル掲示板 -